sensor_id;sensor_type;location;lat;lon;timestamp;P1;P2;P0
62547;PMS7003;48602;45.192;5.722;2023-07-31T00:01:25;2.00;2.00;2.00
62547;PMS7003;48602;45.192;5.722;2023-07-31T00:03:51;3.50;3.00;2.50
62547;PMS7003;48602;45.192;5.722;2023-07-31T00:06:16;2.00;2.00;2.00
62547;PMS7003;48602;45.192;5.722;2023-07-31T00:08:41;3.00;3.00;2.50
62547;PMS7003;48602;45.192;5.722;2023-07-31T00:11:07;3.00;2.00;2.00
62547;PMS7003;48602;45.192;5.722;2023-07-31T00:13:32;2.00;2.00;2.00
62547;PMS7003;48602;45.192;5.722;2023-07-31T00:15:58;3.00;2.25;2.00
62547;PMS7003;48602;45.192;5.722;2023-07-31T00:18:24;5.00;3.40;2.40
62547;PMS7003;48602;45.192;5.722;2023-07-31T00:20:49;4.25;2.50;2.50
62547;PMS7003;48602;45.192;5.722;2023-07-31T00:23:15;3.75;3.00;2.00
62547;PMS7003;48602;45.192;5.722;2023-07-31T00:25:41;3.00;3.00;2.00
62547;PMS7003;48602;45.192;5.722;2023-07-31T00:28:07;1.80;0.20;0.20
62547;PMS7003;48602;45.192;5.722;2023-07-31T00:30:32;3.75;2.50;2.25
62547;PMS7003;48602;45.192;5.722;2023-07-31T00:32:57;3.00;3.00;2.00
62547;PMS7003;48602;45.192;5.722;2023-07-31T00:35:23;3.00;3.00;2.00
62547;PMS7003;48602;45.192;5.722;2023-07-31T00:37:48;3.00;3.00;3.00
62547;PMS7003;48602;45.192;5.722;2023-07-31T00:40:13;3.00;2.00;2.00
62547;PMS7003;48602;45.192;5.722;2023-07-31T00:42:39;3.00;2.50;2.00
62547;PMS7003;48602;45.192;5.722;2023-07-31T00:45:05;4.00;2.00;2.00
62547;PMS7003;48602;45.192;5.722;2023-07-31T00:47:30;3.50;2.25;2.00
62547;PMS7003;48602;45.192;5.722;2023-07-31T00:49:56;3.25;3.00;2.00
62547;PMS7003;48602;45.192;5.722;2023-07-31T00:52:22;3.50;3.00;2.00
62547;PMS7003;48602;45.192;5.722;2023-07-31T00:54:48;3.50;3.00;2.75
62547;PMS7003;48602;45.192;5.722;2023-07-31T00:57:14;3.00;2.00;2.00
62547;PMS7003;48602;45.192;5.722;2023-07-31T00:59:40;4.25;2.00;2.00
62547;PMS7003;48602;45.192;5.722;2023-07-31T01:02:05;2.75;2.00;2.00
62547;PMS7003;48602;45.192;5.722;2023-07-31T01:04:31;3.00;3.00;3.00
62547;PMS7003;48602;45.192;5.722;2023-07-31T01:10:04;2.40;2.40;2.00
62547;PMS7003;48602;45.192;5.722;2023-07-31T01:12:38;2.40;2.20;1.40
62547;PMS7003;48602;45.192;5.722;2023-07-31T01:17:29;3.00;3.00;3.00
62547;PMS7003;48602;45.192;5.722;2023-07-31T01:19:55;2.50;2.00;1.00
62547;PMS7003;48602;45.192;5.722;2023-07-31T01:22:31;2.00;2.00;2.00
62547;PMS7003;48602;45.192;5.722;2023-07-31T01:27:59;2.00;2.00;2.00
62547;PMS7003;48602;45.192;5.722;2023-07-31T01:30:31;2.00;2.00;2.00
62547;PMS7003;48602;45.192;5.722;2023-07-31T01:33:02;5.80;3.00;3.00
62547;PMS7003;48602;45.192;5.722;2023-07-31T01:35:36;2.60;2.60;2.20
62547;PMS7003;48602;45.192;5.722;2023-07-31T01:38:02;2.20;2.20;1.80
62547;PMS7003;48602;45.192;5.722;2023-07-31T01:40:29;3.00;3.00;2.40
62547;PMS7003;48602;45.192;5.722;2023-07-31T01:42:54;4.00;2.25;2.00
62547;PMS7003;48602;45.192;5.722;2023-07-31T01:45:20;2.00;2.00;2.00
62547;PMS7003;48602;45.192;5.722;2023-07-31T01:47:45;2.50;2.50;2.25
62547;PMS7003;48602;45.192;5.722;2023-07-31T01:50:10;2.00;2.00;2.00
62547;PMS7003;48602;45.192;5.722;2023-07-31T01:52:36;2.75;2.75;2.00
62547;PMS7003;48602;45.192;5.722;2023-07-31T01:55:01;3.00;2.00;2.00
62547;PMS7003;48602;45.192;5.722;2023-07-31T01:57:27;5.00;3.50;3.00
62547;PMS7003;48602;45.192;5.722;2023-07-31T01:59:52;4.00;3.25;3.00
62547;PMS7003;48602;45.192;5.722;2023-07-31T02:02:18;3.00;3.00;2.00
62547;PMS7003;48602;45.192;5.722;2023-07-31T02:04:44;3.20;3.20;3.00
62547;PMS7003;48602;45.192;5.722;2023-07-31T02:07:10;4.00;3.00;2.25
62547;PMS7003;48602;45.192;5.722;2023-07-31T02:09:35;1.75;1.75;1.25
62547;PMS7003;48602;45.192;5.722;2023-07-31T02:12:01;3.00;2.75;2.00
62547;PMS7003;48602;45.192;5.722;2023-07-31T02:14:26;2.50;2.50;2.50
62547;PMS7003;48602;45.192;5.722;2023-07-31T02:16:52;2.50;2.50;2.25
62547;PMS7003;48602;45.192;5.722;2023-07-31T02:19:17;3.50;2.25;2.00
62547;PMS7003;48602;45.192;5.722;2023-07-31T02:21:42;3.00;2.00;2.00
62547;PMS7003;48602;45.192;5.722;2023-07-31T02:24:08;1.25;1.25;1.00
62547;PMS7003;48602;45.192;5.722;2023-07-31T02:26:34;2.00;2.00;2.00
62547;PMS7003;48602;45.192;5.722;2023-07-31T02:28:59;2.00;2.00;2.00
62547;PMS7003;48602;45.192;5.722;2023-07-31T02:31:24;4.00;3.25;2.25
62547;PMS7003;48602;45.192;5.722;2023-07-31T02:33:50;3.50;3.25;3.25
62547;PMS7003;48602;45.192;5.722;2023-07-31T02:36:15;5.00;4.00;3.25
62547;PMS7003;48602;45.192;5.722;2023-07-31T02:38:40;3.75;3.75;3.00
62547;PMS7003;48602;45.192;5.722;2023-07-31T02:41:06;4.00;2.75;2.00
62547;PMS7003;48602;45.192;5.722;2023-07-31T02:43:31;3.00;2.25;2.00
62547;PMS7003;48602;45.192;5.722;2023-07-31T02:45:56;4.75;4.00;3.50
62547;PMS7003;48602;45.192;5.722;2023-07-31T02:48:22;4.25;3.00;2.50
62547;PMS7003;48602;45.192;5.722;2023-07-31T02:50:47;3.25;2.50;2.00
62547;PMS7003;48602;45.192;5.722;2023-07-31T02:53:13;2.25;2.25;2.00
62547;PMS7003;48602;45.192;5.722;2023-07-31T02:55:39;3.50;2.00;2.00
62547;PMS7003;48602;45.192;5.722;2023-07-31T02:58:04;2.75;2.75;2.75
62547;PMS7003;48602;45.192;5.722;2023-07-31T03:00:30;2.00;2.00;2.00
62547;PMS7003;48602;45.192;5.722;2023-07-31T03:02:55;4.00;3.00;2.00
62547;PMS7003;48602;45.192;5.722;2023-07-31T03:05:21;3.00;2.00;2.00
62547;PMS7003;48602;45.192;5.722;2023-07-31T03:07:46;4.00;2.50;2.00
62547;PMS7003;48602;45.192;5.722;2023-07-31T03:10:11;3.75;2.75;2.00
62547;PMS7003;48602;45.192;5.722;2023-07-31T03:12:37;2.00;2.00;2.00
62547;PMS7003;48602;45.192;5.722;2023-07-31T03:15:03;4.00;3.25;2.75
62547;PMS7003;48602;45.192;5.722;2023-07-31T03:17:29;3.00;3.00;3.00
62547;PMS7003;48602;45.192;5.722;2023-07-31T03:19:54;2.75;2.75;2.50
62547;PMS7003;48602;45.192;5.722;2023-07-31T03:22:19;4.00;4.00;4.00
62547;PMS7003;48602;45.192;5.722;2023-07-31T03:24:45;3.25;3.25;2.50
62547;PMS7003;48602;45.192;5.722;2023-07-31T03:27:10;3.00;3.00;2.00
62547;PMS7003;48602;45.192;5.722;2023-07-31T03:29:35;2.00;2.00;1.25
62547;PMS7003;48602;45.192;5.722;2023-07-31T03:32:01;3.00;3.00;3.00
62547;PMS7003;48602;45.192;5.722;2023-07-31T03:34:26;2.00;2.00;2.00
62547;PMS7003;48602;45.192;5.722;2023-07-31T03:36:51;4.00;4.00;3.00
62547;PMS7003;48602;45.192;5.722;2023-07-31T03:39:17;3.75;3.75;3.00
62547;PMS7003;48602;45.192;5.722;2023-07-31T03:41:43;3.00;3.00;3.00
62547;PMS7003;48602;45.192;5.722;2023-07-31T03:44:08;3.00;2.00;2.00
62547;PMS7003;48602;45.192;5.722;2023-07-31T03:46:34;2.75;2.00;2.00
62547;PMS7003;48602;45.192;5.722;2023-07-31T03:49:00;3.60;3.00;2.00
62547;PMS7003;48602;45.192;5.722;2023-07-31T03:51:26;2.50;2.50;2.00
62547;PMS7003;48602;45.192;5.722;2023-07-31T03:53:51;3.00;3.00;2.75
62547;PMS7003;48602;45.192;5.722;2023-07-31T03:56:16;3.25;3.25;2.25
62547;PMS7003;48602;45.192;5.722;2023-07-31T03:58:42;3.25;3.00;2.25
62547;PMS7003;48602;45.192;5.722;2023-07-31T04:01:07;3.00;3.00;2.00
62547;PMS7003;48602;45.192;5.722;2023-07-31T04:03:33;4.50;4.50;3.50
62547;PMS7003;48602;45.192;5.722;2023-07-31T04:05:58;2.00;2.00;2.00
62547;PMS7003;48602;45.192;5.722;2023-07-31T04:08:23;2.50;2.25;2.00
62547;PMS7003;48602;45.192;5.722;2023-07-31T04:10:49;4.50;4.50;4.00
62547;PMS7003;48602;45.192;5.722;2023-07-31T04:13:15;3.00;3.00;3.00
62547;PMS7003;48602;45.192;5.722;2023-07-31T04:15:41;4.50;3.00;3.00
62547;PMS7003;48602;45.192;5.722;2023-07-31T04:18:06;5.00;3.00;2.75
62547;PMS7003;48602;45.192;5.722;2023-07-31T04:20:32;4.75;3.25;2.50
62547;PMS7003;48602;45.192;5.722;2023-07-31T04:22:57;2.75;2.75;2.50
62547;PMS7003;48602;45.192;5.722;2023-07-31T04:25:22;4.00;2.00;2.00
62547;PMS7003;48602;45.192;5.722;2023-07-31T04:27:48;3.00;3.00;2.25
62547;PMS7003;48602;45.192;5.722;2023-07-31T04:30:13;5.00;3.00;3.00
62547;PMS7003;48602;45.192;5.722;2023-07-31T04:32:39;4.75;3.25;3.00
62547;PMS7003;48602;45.192;5.722;2023-07-31T04:35:04;4.75;4.00;3.00
62547;PMS7003;48602;45.192;5.722;2023-07-31T04:37:30;6.50;5.50;4.75
62547;PMS7003;48602;45.192;5.722;2023-07-31T04:39:55;3.75;3.75;3.00
62547;PMS7003;48602;45.192;5.722;2023-07-31T04:42:21;2.50;2.50;2.00
62547;PMS7003;48602;45.192;5.722;2023-07-31T04:44:47;5.50;4.50;3.50
62547;PMS7003;48602;45.192;5.722;2023-07-31T04:47:12;5.25;3.75;3.25
62547;PMS7003;48602;45.192;5.722;2023-07-31T04:49:37;3.00;2.50;2.50
62547;PMS7003;48602;45.192;5.722;2023-07-31T04:52:03;4.25;4.00;3.25
62547;PMS7003;48602;45.192;5.722;2023-07-31T04:54:29;6.00;4.50;4.00
62547;PMS7003;48602;45.192;5.722;2023-07-31T04:56:54;4.00;4.00;4.00
62547;PMS7003;48602;45.192;5.722;2023-07-31T04:59:19;2.50;2.50;2.00
62547;PMS7003;48602;45.192;5.722;2023-07-31T05:01:45;3.00;3.00;3.00
62547;PMS7003;48602;45.192;5.722;2023-07-31T05:04:13;4.50;4.50;3.75
62547;PMS7003;48602;45.192;5.722;2023-07-31T05:06:39;4.75;3.75;3.00
62547;PMS7003;48602;45.192;5.722;2023-07-31T05:09:05;4.50;4.00;3.75
62547;PMS7003;48602;45.192;5.722;2023-07-31T05:11:30;5.00;5.00;4.00
62547;PMS7003;48602;45.192;5.722;2023-07-31T05:13:56;4.00;3.75;3.25
62547;PMS7003;48602;45.192;5.722;2023-07-31T05:16:21;4.00;3.75;3.00
62547;PMS7003;48602;45.192;5.722;2023-07-31T05:18:46;5.00;5.00;5.00
62547;PMS7003;48602;45.192;5.722;2023-07-31T05:21:12;4.25;3.00;3.00
62547;PMS7003;48602;45.192;5.722;2023-07-31T05:23:37;4.00;4.00;3.00
62547;PMS7003;48602;45.192;5.722;2023-07-31T05:26:04;5.00;4.00;3.00
62547;PMS7003;48602;45.192;5.722;2023-07-31T05:28:30;4.25;4.25;3.25
62547;PMS7003;48602;45.192;5.722;2023-07-31T05:30:59;3.50;3.50;3.25
62547;PMS7003;48602;45.192;5.722;2023-07-31T05:33:25;4.60;3.20;3.00
62547;PMS7003;48602;45.192;5.722;2023-07-31T05:35:51;2.75;2.75;2.50
62547;PMS7003;48602;45.192;5.722;2023-07-31T05:38:16;6.00;5.00;4.00
62547;PMS7003;48602;45.192;5.722;2023-07-31T05:40:42;5.25;4.00;4.00
62547;PMS7003;48602;45.192;5.722;2023-07-31T05:43:08;5.60;5.60;4.80
62547;PMS7003;48602;45.192;5.722;2023-07-31T05:45:34;4.80;4.80;4.20
62547;PMS7003;48602;45.192;5.722;2023-07-31T05:47:59;4.00;4.00;4.00
62547;PMS7003;48602;45.192;5.722;2023-07-31T05:50:25;6.25;4.25;3.00
62547;PMS7003;48602;45.192;5.722;2023-07-31T05:52:50;8.00;5.75;5.00
62547;PMS7003;48602;45.192;5.722;2023-07-31T05:55:16;6.50;5.75;4.75
62547;PMS7003;48602;45.192;5.722;2023-07-31T05:57:42;4.25;4.25;3.50
62547;PMS7003;48602;45.192;5.722;2023-07-31T06:00:10;4.40;3.00;3.00
62547;PMS7003;48602;45.192;5.722;2023-07-31T06:02:36;9.80;5.80;5.20
62547;PMS7003;48602;45.192;5.722;2023-07-31T06:05:03;7.50;6.00;5.00
62547;PMS7003;48602;45.192;5.722;2023-07-31T06:07:30;5.00;5.00;5.00
62547;PMS7003;48602;45.192;5.722;2023-07-31T06:09:56;3.60;3.60;3.20
62547;PMS7003;48602;45.192;5.722;2023-07-31T06:12:26;6.00;6.00;5.00
62547;PMS7003;48602;45.192;5.722;2023-07-31T06:14:52;4.00;4.00;3.00
62547;PMS7003;48602;45.192;5.722;2023-07-31T06:17:17;5.00;4.00;3.75
62547;PMS7003;48602;45.192;5.722;2023-07-31T06:19:43;9.00;6.25;4.00
62547;PMS7003;48602;45.192;5.722;2023-07-31T06:22:08;5.50;5.00;4.25
62547;PMS7003;48602;45.192;5.722;2023-07-31T06:24:34;8.00;5.50;4.75
62547;PMS7003;48602;45.192;5.722;2023-07-31T06:26:59;9.00;8.25;8.25
62547;PMS7003;48602;45.192;5.722;2023-07-31T06:29:25;5.25;5.00;5.00
62547;PMS7003;48602;45.192;5.722;2023-07-31T06:31:50;7.00;5.75;4.25
62547;PMS7003;48602;45.192;5.722;2023-07-31T06:34:16;4.25;4.25;3.00
62547;PMS7003;48602;45.192;5.722;2023-07-31T06:36:41;5.80;5.00;4.60
62547;PMS7003;48602;45.192;5.722;2023-07-31T06:39:07;7.00;7.00;6.00
62547;PMS7003;48602;45.192;5.722;2023-07-31T06:41:33;5.20;5.20;5.00
62547;PMS7003;48602;45.192;5.722;2023-07-31T06:43:59;7.00;6.00;5.00
62547;PMS7003;48602;45.192;5.722;2023-07-31T06:46:24;8.00;8.00;7.00
62547;PMS7003;48602;45.192;5.722;2023-07-31T06:48:50;6.25;4.75;4.00
62547;PMS7003;48602;45.192;5.722;2023-07-31T06:51:15;8.00;7.00;5.00
62547;PMS7003;48602;45.192;5.722;2023-07-31T06:53:41;6.75;6.25;5.00
62547;PMS7003;48602;45.192;5.722;2023-07-31T06:56:06;8.50;7.50;7.00
62547;PMS7003;48602;45.192;5.722;2023-07-31T06:58:32;8.25;6.50;6.00
62547;PMS7003;48602;45.192;5.722;2023-07-31T07:00:57;14.00;13.25;11.75
62547;PMS7003;48602;45.192;5.722;2023-07-31T07:03:22;11.00;9.25;8.00
62547;PMS7003;48602;45.192;5.722;2023-07-31T07:05:48;6.00;6.00;5.75
62547;PMS7003;48602;45.192;5.722;2023-07-31T07:08:13;9.50;7.75;5.75
62547;PMS7003;48602;45.192;5.722;2023-07-31T07:10:39;9.00;8.25;7.00
62547;PMS7003;48602;45.192;5.722;2023-07-31T07:13:04;5.75;5.75;5.00
62547;PMS7003;48602;45.192;5.722;2023-07-31T07:15:38;7.00;3.75;3.25
62547;PMS7003;48602;45.192;5.722;2023-07-31T07:18:03;6.75;4.50;3.50
62547;PMS7003;48602;45.192;5.722;2023-07-31T07:20:29;5.00;5.00;3.50
62547;PMS7003;48602;45.192;5.722;2023-07-31T07:22:54;4.00;4.00;4.00
62547;PMS7003;48602;45.192;5.722;2023-07-31T07:25:19;5.50;5.50;4.25
62547;PMS7003;48602;45.192;5.722;2023-07-31T07:27:45;5.75;4.00;4.00
62547;PMS7003;48602;45.192;5.722;2023-07-31T07:30:10;5.00;5.00;4.00
62547;PMS7003;48602;45.192;5.722;2023-07-31T07:32:36;7.50;5.25;4.25
62547;PMS7003;48602;45.192;5.722;2023-07-31T07:35:01;6.75;5.00;4.00
62547;PMS7003;48602;45.192;5.722;2023-07-31T07:37:26;4.00;4.00;3.50
62547;PMS7003;48602;45.192;5.722;2023-07-31T07:39:52;5.50;4.00;3.00
62547;PMS7003;48602;45.192;5.722;2023-07-31T07:42:17;4.00;3.00;2.75
62547;PMS7003;48602;45.192;5.722;2023-07-31T07:44:42;4.50;4.25;4.00
62547;PMS7003;48602;45.192;5.722;2023-07-31T07:47:08;5.75;3.50;3.00
62547;PMS7003;48602;45.192;5.722;2023-07-31T07:49:34;4.00;4.00;4.00
62547;PMS7003;48602;45.192;5.722;2023-07-31T07:52:00;4.80;3.40;2.80
62547;PMS7003;48602;45.192;5.722;2023-07-31T07:54:25;4.75;3.00;3.00
62547;PMS7003;48602;45.192;5.722;2023-07-31T07:56:51;4.75;4.75;4.00
62547;PMS7003;48602;45.192;5.722;2023-07-31T07:59:16;3.75;3.75;3.25
62547;PMS7003;48602;45.192;5.722;2023-07-31T08:01:42;1.00;1.00;0.00
62547;PMS7003;48602;45.192;5.722;2023-07-31T08:04:07;2.25;2.00;2.00
62547;PMS7003;48602;45.192;5.722;2023-07-31T08:06:32;3.00;3.00;3.00
62547;PMS7003;48602;45.192;5.722;2023-07-31T08:08:58;6.25;4.25;4.00
62547;PMS7003;48602;45.192;5.722;2023-07-31T08:11:24;4.60;4.60;4.00
62547;PMS7003;48602;45.192;5.722;2023-07-31T08:13:49;4.00;4.00;4.00
62547;PMS7003;48602;45.192;5.722;2023-07-31T08:16:15;5.25;5.00;4.50
62547;PMS7003;48602;45.192;5.722;2023-07-31T08:18:40;4.75;4.75;4.25
62547;PMS7003;48602;45.192;5.722;2023-07-31T08:21:07;4.00;4.00;3.00
62547;PMS7003;48602;45.192;5.722;2023-07-31T08:23:33;2.50;2.50;2.00
62547;PMS7003;48602;45.192;5.722;2023-07-31T08:25:59;4.25;3.00;2.25
62547;PMS7003;48602;45.192;5.722;2023-07-31T08:28:25;3.50;2.75;2.75
62547;PMS7003;48602;45.192;5.722;2023-07-31T08:30:50;2.40;2.40;2.20
62547;PMS7003;48602;45.192;5.722;2023-07-31T08:33:15;3.75;3.50;3.00
62547;PMS7003;48602;45.192;5.722;2023-07-31T08:35:41;3.75;3.75;3.50
62547;PMS7003;48602;45.192;5.722;2023-07-31T08:38:06;4.00;3.75;3.00
62547;PMS7003;48602;45.192;5.722;2023-07-31T08:40:32;3.00;3.00;3.00
62547;PMS7003;48602;45.192;5.722;2023-07-31T08:43:01;3.00;3.00;3.00
62547;PMS7003;48602;45.192;5.722;2023-07-31T08:45:27;10.40;9.80;8.20
62547;PMS7003;48602;45.192;5.722;2023-07-31T08:47:53;6.00;4.20;3.00
62547;PMS7003;48602;45.192;5.722;2023-07-31T08:50:21;3.80;3.80;3.00
62547;PMS7003;48602;45.192;5.722;2023-07-31T08:52:48;4.00;2.75;2.25
62547;PMS7003;48602;45.192;5.722;2023-07-31T08:55:15;4.00;2.60;2.20
62547;PMS7003;48602;45.192;5.722;2023-07-31T08:57:40;3.00;3.00;3.00
62547;PMS7003;48602;45.192;5.722;2023-07-31T09:00:08;2.00;2.00;2.00
62547;PMS7003;48602;45.192;5.722;2023-07-31T09:02:36;2.80;2.80;2.00
62547;PMS7003;48602;45.192;5.722;2023-07-31T09:05:06;2.20;2.00;2.00
62547;PMS7003;48602;45.192;5.722;2023-07-31T09:07:33;4.80;3.20;3.00
62547;PMS7003;48602;45.192;5.722;2023-07-31T09:09:59;2.00;2.00;2.00
62547;PMS7003;48602;45.192;5.722;2023-07-31T09:12:25;2.25;2.25;2.25
62547;PMS7003;48602;45.192;5.722;2023-07-31T09:14:50;3.00;3.00;2.00
62547;PMS7003;48602;45.192;5.722;2023-07-31T09:17:16;3.00;3.00;2.75
62547;PMS7003;48602;45.192;5.722;2023-07-31T09:22:41;2.40;2.20;2.00
62547;PMS7003;48602;45.192;5.722;2023-07-31T09:25:17;3.00;3.00;3.00
62547;PMS7003;48602;45.192;5.722;2023-07-31T09:30:16;3.20;1.80;1.60
62547;PMS7003;48602;45.192;5.722;2023-07-31T09:32:43;2.00;2.00;2.00
62547;PMS7003;48602;45.192;5.722;2023-07-31T09:35:19;3.20;2.00;1.60
62547;PMS7003;48602;45.192;5.722;2023-07-31T09:37:53;3.40;2.60;2.00
62547;PMS7003;48602;45.192;5.722;2023-07-31T09:42:53;3.60;2.00;1.80
62547;PMS7003;48602;45.192;5.722;2023-07-31T09:45:28;1.80;1.80;1.80
62547;PMS7003;48602;45.192;5.722;2023-07-31T09:47:55;2.60;2.00;2.00
62547;PMS7003;48602;45.192;5.722;2023-07-31T09:50:22;2.20;2.20;2.00
62547;PMS7003;48602;45.192;5.722;2023-07-31T09:52:49;3.00;2.20;2.20
62547;PMS7003;48602;45.192;5.722;2023-07-31T09:55:15;4.40;4.00;3.00
62547;PMS7003;48602;45.192;5.722;2023-07-31T09:57:41;3.50;3.50;3.00
62547;PMS7003;48602;45.192;5.722;2023-07-31T10:00:10;3.00;3.00;3.00
62547;PMS7003;48602;45.192;5.722;2023-07-31T10:02:37;0.60;0.00;0.00
62547;PMS7003;48602;45.192;5.722;2023-07-31T10:05:04;2.80;2.80;2.40
62547;PMS7003;48602;45.192;5.722;2023-07-31T10:07:31;4.20;3.20;2.60
62547;PMS7003;48602;45.192;5.722;2023-07-31T10:10:01;4.00;2.20;2.00
62547;PMS7003;48602;45.192;5.722;2023-07-31T10:12:28;2.60;2.60;2.40
62547;PMS7003;48602;45.192;5.722;2023-07-31T10:14:57;3.00;3.00;3.00
62547;PMS7003;48602;45.192;5.722;2023-07-31T10:17:24;4.60;4.60;3.40
62547;PMS7003;48602;45.192;5.722;2023-07-31T10:19:51;3.80;2.80;2.60
62547;PMS7003;48602;45.192;5.722;2023-07-31T10:22:16;3.00;3.00;2.00
62547;PMS7003;48602;45.192;5.722;2023-07-31T10:24:43;3.00;3.00;2.60
62547;PMS7003;48602;45.192;5.722;2023-07-31T10:27:10;2.60;2.60;2.40
62547;PMS7003;48602;45.192;5.722;2023-07-31T10:29:37;3.00;3.00;2.75
62547;PMS7003;48602;45.192;5.722;2023-07-31T10:32:04;5.20;2.80;2.80
62547;PMS7003;48602;45.192;5.722;2023-07-31T10:34:36;2.40;2.40;2.40
62547;PMS7003;48602;45.192;5.722;2023-07-31T10:40:03;3.00;3.00;3.00
62547;PMS7003;48602;45.192;5.722;2023-07-31T10:45:37;2.60;2.60;2.20
62547;PMS7003;48602;45.192;5.722;2023-07-31T10:48:07;3.00;3.00;3.00
62547;PMS7003;48602;45.192;5.722;2023-07-31T10:50:38;1.40;0.80;0.80
62547;PMS7003;48602;45.192;5.722;2023-07-31T10:53:15;2.60;2.60;2.20
62547;PMS7003;48602;45.192;5.722;2023-07-31T10:55:49;4.00;2.80;2.60
62547;PMS7003;48602;45.192;5.722;2023-07-31T10:58:17;3.00;3.00;3.00
62547;PMS7003;48602;45.192;5.722;2023-07-31T11:00:45;4.80;3.60;3.40
62547;PMS7003;48602;45.192;5.722;2023-07-31T11:03:12;3.00;2.75;2.50
62547;PMS7003;48602;45.192;5.722;2023-07-31T11:10:48;4.80;2.00;2.00
62547;PMS7003;48602;45.192;5.722;2023-07-31T11:16:15;4.00;4.00;3.80
62547;PMS7003;48602;45.192;5.722;2023-07-31T11:18:45;4.00;3.80;3.00
62547;PMS7003;48602;45.192;5.722;2023-07-31T11:21:16;4.00;2.40;2.20
62547;PMS7003;48602;45.192;5.722;2023-07-31T11:23:48;3.60;3.00;2.40
62547;PMS7003;48602;45.192;5.722;2023-07-31T11:26:15;3.00;3.00;3.00
62547;PMS7003;48602;45.192;5.722;2023-07-31T11:28:41;4.00;2.20;1.80
62547;PMS7003;48602;45.192;5.722;2023-07-31T11:31:10;4.80;3.40;2.80
62547;PMS7003;48602;45.192;5.722;2023-07-31T11:33:36;2.00;2.00;2.00
62547;PMS7003;48602;45.192;5.722;2023-07-31T11:36:01;2.75;2.75;2.00
62547;PMS7003;48602;45.192;5.722;2023-07-31T11:38:28;2.25;1.75;1.75
62547;PMS7003;48602;45.192;5.722;2023-07-31T11:40:55;4.60;2.20;1.80
62547;PMS7003;48602;45.192;5.722;2023-07-31T11:43:33;2.80;2.80;2.00
62547;PMS7003;48602;45.192;5.722;2023-07-31T11:46:00;4.20;3.00;2.80
62547;PMS7003;48602;45.192;5.722;2023-07-31T11:48:31;2.20;2.20;2.00
62547;PMS7003;48602;45.192;5.722;2023-07-31T11:51:02;2.60;2.40;1.80
62547;PMS7003;48602;45.192;5.722;2023-07-31T11:53:33;3.60;3.60;3.40
62547;PMS7003;48602;45.192;5.722;2023-07-31T11:56:06;2.80;2.60;2.00
62547;PMS7003;48602;45.192;5.722;2023-07-31T11:58:34;2.00;2.00;2.00
62547;PMS7003;48602;45.192;5.722;2023-07-31T12:01:01;4.40;3.40;2.60
62547;PMS7003;48602;45.192;5.722;2023-07-31T12:03:27;2.60;2.60;2.40
62547;PMS7003;48602;45.192;5.722;2023-07-31T12:05:54;2.50;2.50;2.25
62547;PMS7003;48602;45.192;5.722;2023-07-31T12:08:23;1.20;1.20;1.20
62547;PMS7003;48602;45.192;5.722;2023-07-31T12:10:52;3.60;3.60;2.40
62547;PMS7003;48602;45.192;5.722;2023-07-31T12:13:23;2.00;2.00;2.00
62547;PMS7003;48602;45.192;5.722;2023-07-31T12:15:53;1.40;1.40;1.40
62547;PMS7003;48602;45.192;5.722;2023-07-31T12:18:23;3.20;3.20;2.40
62547;PMS7003;48602;45.192;5.722;2023-07-31T12:20:54;2.80;1.40;1.40
62547;PMS7003;48602;45.192;5.722;2023-07-31T12:23:21;2.00;2.00;2.00
62547;PMS7003;48602;45.192;5.722;2023-07-31T12:26:00;2.60;2.60;1.80
62547;PMS7003;48602;45.192;5.722;2023-07-31T12:28:36;1.40;1.40;1.20
62547;PMS7003;48602;45.192;5.722;2023-07-31T12:31:03;4.20;2.80;1.80
62547;PMS7003;48602;45.192;5.722;2023-07-31T12:33:33;1.00;1.00;1.00
62547;PMS7003;48602;45.192;5.722;2023-07-31T12:36:01;4.40;1.40;1.40
62547;PMS7003;48602;45.192;5.722;2023-07-31T12:38:28;2.80;2.00;1.80
62547;PMS7003;48602;45.192;5.722;2023-07-31T12:40:54;1.80;1.80;1.80
62547;PMS7003;48602;45.192;5.722;2023-07-31T12:43:20;3.50;3.50;2.75
62547;PMS7003;48602;45.192;5.722;2023-07-31T12:45:45;5.00;3.50;3.00
62547;PMS7003;48602;45.192;5.722;2023-07-31T12:48:12;4.00;2.80;2.60
62547;PMS7003;48602;45.192;5.722;2023-07-31T12:50:37;2.00;2.00;2.00
62547;PMS7003;48602;45.192;5.722;2023-07-31T12:53:03;2.50;2.25;1.75
62547;PMS7003;48602;45.192;5.722;2023-07-31T12:55:28;3.00;3.00;2.25
62547;PMS7003;48602;45.192;5.722;2023-07-31T12:57:55;4.00;2.40;2.00
62547;PMS7003;48602;45.192;5.722;2023-07-31T13:00:20;3.50;2.50;1.50
62547;PMS7003;48602;45.192;5.722;2023-07-31T13:02:47;3.00;2.00;1.80
62547;PMS7003;48602;45.192;5.722;2023-07-31T13:05:13;2.75;2.75;2.25
62547;PMS7003;48602;45.192;5.722;2023-07-31T13:07:39;2.00;1.00;1.00
62547;PMS7003;48602;45.192;5.722;2023-07-31T13:10:05;1.60;1.60;1.60
62547;PMS7003;48602;45.192;5.722;2023-07-31T13:12:31;1.80;1.80;1.40
62547;PMS7003;48602;45.192;5.722;2023-07-31T13:14:57;2.00;2.00;2.00
62547;PMS7003;48602;45.192;5.722;2023-07-31T13:17:22;0.75;0.75;0.00
62547;PMS7003;48602;45.192;5.722;2023-07-31T13:19:48;1.50;1.00;0.50
62547;PMS7003;48602;45.192;5.722;2023-07-31T13:22:13;2.75;2.25;2.00
62547;PMS7003;48602;45.192;5.722;2023-07-31T13:24:38;1.50;1.50;1.50
62547;PMS7003;48602;45.192;5.722;2023-07-31T13:27:04;4.25;3.00;2.50
62547;PMS7003;48602;45.192;5.722;2023-07-31T13:29:29;2.00;2.00;1.75
62547;PMS7003;48602;45.192;5.722;2023-07-31T13:31:55;2.25;2.25;2.00
62547;PMS7003;48602;45.192;5.722;2023-07-31T13:34:20;2.50;2.50;2.50
62547;PMS7003;48602;45.192;5.722;2023-07-31T13:36:46;3.75;3.00;3.00
62547;PMS7003;48602;45.192;5.722;2023-07-31T13:39:11;4.00;4.00;3.00
62547;PMS7003;48602;45.192;5.722;2023-07-31T13:41:37;2.25;2.25;2.25
62547;PMS7003;48602;45.192;5.722;2023-07-31T13:44:02;2.75;2.00;2.00
62547;PMS7003;48602;45.192;5.722;2023-07-31T13:46:28;1.25;1.25;0.75
62547;PMS7003;48602;45.192;5.722;2023-07-31T13:48:53;4.50;2.50;1.75
62547;PMS7003;48602;45.192;5.722;2023-07-31T13:51:20;3.20;2.00;2.00
62547;PMS7003;48602;45.192;5.722;2023-07-31T13:53:46;2.80;1.80;1.80
62547;PMS7003;48602;45.192;5.722;2023-07-31T13:56:12;1.00;1.00;1.00
62547;PMS7003;48602;45.192;5.722;2023-07-31T13:58:38;1.50;1.50;1.50
62547;PMS7003;48602;45.192;5.722;2023-07-31T14:01:03;3.00;1.50;1.50
62547;PMS7003;48602;45.192;5.722;2023-07-31T14:03:29;2.50;1.50;1.00
62547;PMS7003;48602;45.192;5.722;2023-07-31T14:05:54;0.75;0.75;0.50
62547;PMS7003;48602;45.192;5.722;2023-07-31T14:08:20;2.40;1.20;1.00
62547;PMS7003;48602;45.192;5.722;2023-07-31T14:10:46;1.75;1.50;1.50
62547;PMS7003;48602;45.192;5.722;2023-07-31T14:13:11;3.00;1.75;1.00
62547;PMS7003;48602;45.192;5.722;2023-07-31T14:15:37;2.50;2.50;1.50
62547;PMS7003;48602;45.192;5.722;2023-07-31T14:18:02;2.50;1.50;1.00
62547;PMS7003;48602;45.192;5.722;2023-07-31T14:20:28;1.50;1.50;1.50
62547;PMS7003;48602;45.192;5.722;2023-07-31T14:22:53;1.50;1.50;1.25
62547;PMS7003;48602;45.192;5.722;2023-07-31T14:25:19;2.00;0.00;0.00
62547;PMS7003;48602;45.192;5.722;2023-07-31T14:27:45;2.20;2.20;2.00
62547;PMS7003;48602;45.192;5.722;2023-07-31T14:30:10;0.75;0.00;0.00
62547;PMS7003;48602;45.192;5.722;2023-07-31T14:32:36;2.00;1.00;0.50
62547;PMS7003;48602;45.192;5.722;2023-07-31T14:35:02;1.00;1.00;1.00
62547;PMS7003;48602;45.192;5.722;2023-07-31T14:37:35;2.00;1.00;1.00
62547;PMS7003;48602;45.192;5.722;2023-07-31T14:40:02;1.20;1.20;1.00
62547;PMS7003;48602;45.192;5.722;2023-07-31T14:42:28;1.00;1.00;0.50
62547;PMS7003;48602;45.192;5.722;2023-07-31T14:44:53;2.00;2.00;0.75
62547;PMS7003;48602;45.192;5.722;2023-07-31T14:47:19;1.00;1.00;1.00
62547;PMS7003;48602;45.192;5.722;2023-07-31T14:49:44;1.25;1.25;1.00